Time;durP1;ratioP1;P1;durP2;ratioP2;P2;SDS_P1;SDS_P2;PMS_P1;PMS_P2;Temp;Humidity;BMP_temperature;BMP_pressure;BME280_temperature;BME280_humidity;BME280_pressure;Samples;Min_cycle;Max_cycle;Signal;HPM_P1;HPM_P2
2021/12/27 00:01:27;;;;;;;10.65;5.37;;;;;;;1.20;50.81;99234.22;4198112;34;33812;-87
2021/12/27 00:03:56;;;;;;;12.10;5.22;;;;;;;1.05;51.16;99239.06;4198695;34;34722;-88
2021/12/27 00:06:27;;;;;;;8.82;5.30;;;;;;;0.76;51.55;99234.28;4202961;34;31775;-87
2021/12/27 00:08:57;;;;;;;9.77;4.70;;;;;;;0.71;51.98;99238.44;4197727;34;34290;-87
2021/12/27 00:11:26;;;;;;;12.63;4.85;;;;;;;0.63;52.27;99228.09;4185652;34;32502;-88
2021/12/27 00:13:54;;;;;;;8.00;4.80;;;;;;;0.52;52.75;99228.72;4198127;34;33855;-88
2021/12/27 00:16:23;;;;;;;8.55;5.57;;;;;;;1.02;51.71;99223.69;4185017;34;32014;-88
2021/12/27 00:18:52;;;;;;;7.07;4.35;;;;;;;1.04;51.76;99217.78;4202389;34;33729;-88
2021/12/27 00:21:21;;;;;;;6.10;4.07;;;;;;;0.83;52.08;99209.72;4198497;34;33211;-88
2021/12/27 00:23:51;;;;;;;8.25;4.80;;;;;;;1.28;51.20;99206.22;4195741;34;34569;-87
2021/12/27 00:26:20;;;;;;;7.75;5.12;;;;;;;1.01;51.73;99219.41;4197568;34;32804;-87
2021/12/27 00:28:51;;;;;;;8.98;5.57;;;;;;;0.95;51.88;99221.88;4197935;34;35116;-88
2021/12/27 00:31:22;;;;;;;8.65;5.03;;;;;;;0.87;52.55;99224.28;4201780;34;33517;-87
2021/12/27 00:33:51;;;;;;;8.75;4.55;;;;;;;0.98;52.50;99219.34;4195918;34;33812;-87
2021/12/27 00:36:19;;;;;;;9.27;4.95;;;;;;;1.10;52.33;99221.28;4198179;34;33459;-87
2021/12/27 00:38:48;;;;;;;10.98;4.90;;;;;;;1.19;52.25;99222.28;4198738;34;33374;-88
2021/12/27 00:41:18;;;;;;;10.15;4.53;;;;;;;1.06;52.57;99226.34;4204569;34;33442;-88
2021/12/27 00:43:51;;;;;;;10.50;6.05;;;;;;;0.91;52.70;99230.28;4204827;34;34637;-89
2021/12/27 00:46:20;;;;;;;7.72;4.85;;;;;;;1.16;52.01;99226.47;4200218;34;33436;-88
2021/12/27 00:48:49;;;;;;;10.00;4.30;;;;;;;0.99;52.39;99231.28;4200068;34;33974;-89
2021/12/27 00:51:18;;;;;;;9.00;4.70;;;;;;;0.77;52.86;99232.59;4200745;34;33537;-88
2021/12/27 00:53:46;;;;;;;11.52;4.78;;;;;;;0.80;52.44;99233.53;4199911;34;33451;-88
2021/12/27 00:56:16;;;;;;;9.98;5.28;;;;;;;1.09;52.03;99228.06;4200061;34;33387;-88
2021/12/27 00:58:46;;;;;;;4.50;3.33;;;;;;;1.18;51.45;99223.09;4184935;34;33085;-87
2021/12/27 01:01:15;;;;;;;6.32;4.05;;;;;;;1.17;51.26;99223.09;4197640;34;33566;-86
2021/12/27 01:03:44;;;;;;;9.85;5.07;;;;;;;1.24;50.23;99215.56;4207637;34;32912;-87
2021/12/27 01:06:13;;;;;;;5.45;3.78;;;;;;;1.13;50.64;99217.06;4197093;34;33065;-87
2021/12/27 01:08:42;;;;;;;6.93;4.10;;;;;;;1.25;50.62;99207.03;4201744;34;33297;-88
2021/12/27 01:11:24;;;;;;;7.97;3.72;;;;;;;1.21;50.93;99217.22;4196906;34;33870;-88
2021/12/27 01:14:09;;;;;;;6.00;4.28;;;;;;;1.19;51.07;99214.63;4196563;34;33424;-88
2021/12/27 01:16:38;;;;;;;8.45;4.22;;;;;;;1.11;50.29;99225.53;4197004;34;33131;-87
2021/12/27 01:19:08;;;;;;;6.47;3.42;;;;;;;1.19;50.77;99224.00;4197499;34;34856;-88
2021/12/27 01:21:43;;;;;;;7.03;4.40;;;;;;;1.03;51.02;99225.41;4207521;34;33251;-88
2021/12/27 01:24:12;;;;;;;9.02;4.68;;;;;;;0.84;51.04;99219.97;4203124;34;33458;-89
2021/12/27 01:26:43;;;;;;;9.25;4.37;;;;;;;0.88;50.74;99222.59;4198619;34;33395;-87
2021/12/27 01:29:13;;;;;;;10.80;5.30;;;;;;;0.92;50.68;99224.34;4198021;34;33369;-88
2021/12/27 01:31:44;;;;;;;12.18;6.47;;;;;;;0.84;51.17;99214.00;4185921;34;33293;-88
2021/12/27 01:34:13;;;;;;;7.93;4.68;;;;;;;0.97;51.07;99207.44;4197588;34;34091;-88
2021/12/27 01:36:43;;;;;;;10.82;4.65;;;;;;;1.18;51.25;99207.78;4197438;34;33778;-88
2021/12/27 01:39:11;;;;;;;9.20;4.82;;;;;;;1.16;51.46;99212.03;4202129;34;33792;-88
2021/12/27 01:41:40;;;;;;;11.57;5.12;;;;;;;0.97;51.91;99207.44;4197668;34;33945;-87
2021/12/27 01:44:10;;;;;;;6.65;4.53;;;;;;;1.08;52.23;99207.59;4199409;34;32306;-87
2021/12/27 01:46:41;;;;;;;10.52;4.80;;;;;;;0.93;52.44;99203.94;4199635;34;33734;-87
2021/12/27 01:49:11;;;;;;;6.20;4.40;;;;;;;0.59;53.46;99210.13;4204356;34;33353;-88
2021/12/27 01:51:40;;;;;;;9.70;4.97;;;;;;;1.03;52.45;99200.72;4207860;34;33566;-87
2021/12/27 01:54:09;;;;;;;7.82;4.20;;;;;;;1.00;52.81;99200.66;4214730;34;34677;-87
2021/12/27 01:56:39;;;;;;;8.90;4.45;;;;;;;1.14;53.05;99203.47;4204535;34;33096;-87
2021/12/27 01:59:08;;;;;;;10.23;4.68;;;;;;;0.89;53.64;99204.72;4200020;34;32554;-88
2021/12/27 02:01:37;;;;;;;5.35;3.95;;;;;;;0.79;53.95;99215.59;4206162;34;33618;-88
2021/12/27 02:04:07;;;;;;;7.30;4.40;;;;;;;0.88;53.69;99207.25;4200955;34;34062;-88
2021/12/27 02:06:36;;;;;;;8.98;3.85;;;;;;;0.64;54.27;99211.09;4200851;34;34851;-87
2021/12/27 02:09:05;;;;;;;9.93;4.78;;;;;;;0.85;53.59;99210.63;4200666;34;34163;-87
2021/12/27 02:11:35;;;;;;;5.28;3.20;;;;;;;0.80;53.67;99214.78;4200357;34;33751;-88
2021/12/27 02:14:04;;;;;;;4.22;3.45;;;;;;;0.90;53.22;99205.59;4206201;34;33800;-88
2021/12/27 02:16:36;;;;;;;7.28;3.55;;;;;;;0.96;52.83;99206.53;4200611;34;33407;-88
2021/12/27 02:19:05;;;;;;;8.15;4.22;;;;;;;0.99;52.42;99210.84;4200098;34;33572;-88
2021/12/27 02:21:35;;;;;;;14.23;4.20;;;;;;;0.93;52.49;99208.19;4200643;34;34129;-88
2021/12/27 02:24:07;;;;;;;5.55;3.53;;;;;;;0.88;52.46;99203.00;4206160;34;35924;-87
2021/12/27 02:26:37;;;;;;;10.60;4.50;;;;;;;0.81;52.69;99204.59;4219971;34;33600;-87
2021/12/27 02:29:07;;;;;;;6.93;4.03;;;;;;;0.85;52.38;99206.38;4209168;34;33865;-87
2021/12/27 02:31:39;;;;;;;6.37;4.10;;;;;;;0.96;51.96;99208.25;4196158;34;33575;-86
2021/12/27 02:34:10;;;;;;;7.70;4.35;;;;;;;1.05;51.55;99210.97;4201226;34;34396;-88
2021/12/27 02:36:40;;;;;;;6.27;3.47;;;;;;;0.83;52.42;99200.37;4200411;34;33149;-87
2021/12/27 02:39:09;;;;;;;5.90;3.53;;;;;;;0.59;53.04;99195.69;4200570;34;33389;-88
2021/12/27 02:41:38;;;;;;;7.70;4.00;;;;;;;0.84;52.96;99193.56;4206038;34;34646;-88
2021/12/27 02:44:06;;;;;;;5.03;4.10;;;;;;;1.00;52.65;99190.44;4201053;34;34041;-87
2021/12/27 02:46:35;;;;;;;5.55;3.95;;;;;;;0.98;52.67;99187.00;4200862;34;34094;-87
2021/12/27 02:49:04;;;;;;;7.90;4.12;;;;;;;0.89;52.99;99191.09;4200313;34;34520;-87
2021/12/27 02:51:33;;;;;;;7.70;4.50;;;;;;;0.91;53.13;99192.00;4200655;34;33975;-87
2021/12/27 02:54:04;;;;;;;5.30;3.62;;;;;;;1.01;52.88;99193.84;4205571;34;33609;-87
2021/12/27 02:56:33;;;;;;;6.75;3.83;;;;;;;0.98;53.07;99197.22;4200700;34;32227;-87
2021/12/27 02:59:02;;;;;;;6.47;3.92;;;;;;;0.85;53.56;99193.59;4199534;34;34630;-87
2021/12/27 03:01:31;;;;;;;5.62;3.50;;;;;;;1.03;52.90;99187.94;4200261;34;34786;-87
2021/12/27 03:04:00;;;;;;;5.12;4.07;;;;;;;0.94;53.23;99182.66;4200521;34;34434;-87
2021/12/27 03:06:29;;;;;;;7.57;3.58;;;;;;;0.94;53.40;99186.94;4205511;34;33037;-88
2021/12/27 03:08:58;;;;;;;4.82;3.47;;;;;;;1.01;53.24;99187.06;4200300;34;33787;-87
2021/12/27 03:11:28;;;;;;;3.90;2.92;;;;;;;1.07;53.04;99186.31;4203193;34;34136;-87
2021/12/27 03:13:57;;;;;;;5.97;3.65;;;;;;;0.91;53.70;99182.62;4200656;34;33895;-88
2021/12/27 03:16:25;;;;;;;7.57;4.32;;;;;;;1.03;53.56;99177.72;4200198;34;34325;-87
2021/12/27 03:18:55;;;;;;;4.82;3.80;;;;;;;1.16;53.54;99180.47;4200464;34;33852;-87
2021/12/27 03:21:25;;;;;;;5.20;3.55;;;;;;;1.05;53.78;99177.75;4204303;34;34241;-87
2021/12/27 03:23:54;;;;;;;6.40;4.03;;;;;;;1.11;53.65;99175.28;4204692;34;33785;-88
2021/12/27 03:26:23;;;;;;;6.28;3.62;;;;;;;1.04;53.99;99170.94;4208922;34;34077;-87
2021/12/27 03:28:53;;;;;;;5.55;3.50;;;;;;;1.00;54.22;99177.69;4206334;34;33438;-87
2021/12/27 03:31:22;;;;;;;7.05;3.25;;;;;;;1.14;53.76;99172.81;4219034;34;35688;-87
2021/12/27 03:33:50;;;;;;;6.32;3.75;;;;;;;1.12;53.60;99173.62;4214757;34;34013;-87
2021/12/27 03:36:28;;;;;;;8.50;4.22;;;;;;;1.16;53.47;99176.25;4201233;34;32260;-87
2021/12/27 03:38:56;;;;;;;6.18;3.45;;;;;;;0.95;54.05;99165.69;4201870;34;34218;-87
2021/12/27 03:41:26;;;;;;;7.95;4.12;;;;;;;1.13;53.42;99171.06;4200103;34;34240;-87
2021/12/27 03:43:59;;;;;;;9.52;4.10;;;;;;;1.11;53.37;99169.34;4201903;34;34557;-89
2021/12/27 03:46:28;;;;;;;4.85;3.60;;;;;;;1.19;53.11;99166.06;4204327;34;32590;-87
2021/12/27 03:48:57;;;;;;;6.68;4.12;;;;;;;1.12;53.23;99166.81;4198401;34;33379;-87
2021/12/27 03:51:26;;;;;;;7.57;3.58;;;;;;;1.08;53.56;99166.72;4199463;34;33874;-87
2021/12/27 03:53:55;;;;;;;5.28;3.05;;;;;;;1.01;53.72;99170.87;4200112;34;33649;-87
2021/12/27 03:56:24;;;;;;;4.55;2.97;;;;;;;0.82;54.12;99170.59;4200038;34;33407;-87
2021/12/27 03:58:58;;;;;;;4.43;3.25;;;;;;;1.05;53.68;99170.94;4204547;34;34641;-87
2021/12/27 04:01:29;;;;;;;5.82;3.50;;;;;;;1.10;53.60;99175.28;4200089;34;33770;-86
2021/12/27 04:04:17;;;;;;;4.35;3.65;;;;;;;0.93;54.04;99169.91;4199985;34;34788;-87
2021/12/27 04:07:07;;;;;;;5.72;3.25;;;;;;;0.94;53.90;99167.34;4199526;34;34286;-87
2021/12/27 04:09:54;;;;;;;4.35;3.28;;;;;;;0.73;54.48;99172.97;4190485;34;34652;-86
2021/12/27 04:12:43;;;;;;;4.00;2.83;;;;;;;0.75;54.32;99168.75;4199785;34;35106;-87
2021/12/27 04:15:31;;;;;;;9.50;3.53;;;;;;;0.74;53.88;99174.66;4199069;34;34579;-87
2021/12/27 04:18:01;;;;;;;3.78;3.15;;;;;;;0.85;53.65;99175.72;4198867;34;33571;-87
2021/12/27 04:20:30;;;;;;;6.32;3.42;;;;;;;0.75;54.30;99178.97;4204369;34;33362;-87
2021/12/27 04:22:59;;;;;;;7.10;3.87;;;;;;;0.84;53.60;99178.25;4199508;34;33691;-87
2021/12/27 04:25:27;;;;;;;6.25;3.40;;;;;;;0.78;54.15;99175.59;4213752;34;33899;-87
2021/12/27 04:27:56;;;;;;;3.85;3.12;;;;;;;0.80;54.35;99168.84;4207299;34;34174;-87
2021/12/27 04:30:25;;;;;;;3.72;3.28;;;;;;;0.80;54.15;99166.28;4199696;34;34088;-87
2021/12/27 04:32:54;;;;;;;10.52;3.95;;;;;;;0.93;53.95;99164.78;4205296;34;33940;-87
2021/12/27 04:35:25;;;;;;;6.20;3.47;;;;;;;1.05;53.57;99165.84;4203563;34;34014;-87
2021/12/27 04:37:55;;;;;;;4.87;3.08;;;;;;;0.87;54.19;99167.22;4201334;34;33202;-87
2021/12/27 04:40:25;;;;;;;3.78;2.85;;;;;;;0.98;53.86;99163.16;4201822;34;34207;-87
2021/12/27 04:42:57;;;;;;;8.32;3.45;;;;;;;0.94;53.70;99172.47;4202027;34;34897;-87
2021/12/27 04:45:26;;;;;;;5.85;3.28;;;;;;;1.06;53.75;99167.59;4201376;34;34590;-87
2021/12/27 04:47:55;;;;;;;6.20;3.72;;;;;;;1.00;53.72;99174.28;4205936;34;33438;-87
2021/12/27 04:50:25;;;;;;;4.97;3.70;;;;;;;1.03;53.86;99164.94;4201457;34;34147;-87
2021/12/27 04:52:54;;;;;;;5.68;3.40;;;;;;;1.20;53.67;99166.94;4201609;34;34465;-87
2021/12/27 04:55:23;;;;;;;6.53;3.67;;;;;;;1.17;53.71;99169.44;4201169;34;34537;-87
2021/12/27 04:57:52;;;;;;;6.20;3.35;;;;;;;1.21;53.29;99174.62;4198159;34;34414;-87
2021/12/27 05:00:22;;;;;;;8.00;4.05;;;;;;;1.22;53.31;99170.37;4215074;34;33971;-87
2021/12/27 05:02:50;;;;;;;4.07;3.10;;;;;;;1.08;53.32;99171.84;4213997;34;34184;-87
2021/12/27 05:05:19;;;;;;;5.70;3.17;;;;;;;1.05;53.40;99170.94;4200795;34;32317;-87
2021/12/27 05:07:49;;;;;;;5.53;3.30;;;;;;;1.05;53.76;99177.75;4201510;34;33093;-88
2021/12/27 05:10:18;;;;;;;3.95;2.72;;;;;;;1.19;53.54;99173.75;4201505;34;33798;-87
2021/12/27 05:12:47;;;;;;;6.03;3.60;;;;;;;1.39;53.56;99171.50;4206199;34;33905;-88
2021/12/27 05:15:16;;;;;;;4.65;3.22;;;;;;;1.24;53.82;99173.81;4213916;34;33920;-87
2021/12/27 05:17:45;;;;;;;5.10;3.10;;;;;;;1.30;53.71;99173.91;4214826;33;33813;-87
2021/12/27 05:20:13;;;;;;;5.05;3.00;;;;;;;1.39;53.60;99168.94;4202023;34;33621;-88
2021/12/27 05:22:42;;;;;;;6.55;3.97;;;;;;;1.54;53.14;99167.44;4206873;34;33673;-88
2021/12/27 05:25:15;;;;;;;6.30;3.17;;;;;;;1.52;53.14;99171.66;4206963;34;34231;-88
2021/12/27 05:27:45;;;;;;;3.75;3.12;;;;;;;1.33;53.46;99171.41;4201261;34;34142;-88
2021/12/27 05:30:19;;;;;;;4.78;2.83;;;;;;;1.48;53.01;99173.34;4201321;34;33550;-88
2021/12/27 05:32:49;;;;;;;4.93;3.53;;;;;;;1.62;52.30;99168.41;4200555;34;34024;-88
2021/12/27 05:35:17;;;;;;;5.22;2.75;;;;;;;1.65;52.24;99173.59;4200975;34;34593;-88
2021/12/27 05:37:46;;;;;;;5.80;3.28;;;;;;;1.67;52.60;99162.53;4206027;34;32978;-87
2021/12/27 05:40:22;;;;;;;10.27;3.67;;;;;;;1.66;53.02;99163.34;4205798;34;34563;-88
2021/12/27 05:42:53;;;;;;;3.60;2.85;;;;;;;1.63;53.25;99163.31;4200767;34;33804;-88
2021/12/27 05:45:22;;;;;;;5.15;3.25;;;;;;;1.74;53.12;99160.94;4201238;34;33683;-88
2021/12/27 05:47:51;;;;;;;8.48;3.90;;;;;;;1.78;52.81;99169.50;4200755;34;33129;-88
2021/12/27 05:50:20;;;;;;;5.55;3.37;;;;;;;1.67;52.80;99166.81;4201118;34;34582;-88
2021/12/27 05:52:53;;;;;;;5.87;3.17;;;;;;;1.72;52.77;99170.28;4205966;34;34397;-88
2021/12/27 05:55:23;;;;;;;4.93;3.05;;;;;;;1.69;53.52;99167.66;4201090;34;33811;-88
2021/12/27 05:57:53;;;;;;;7.50;3.75;;;;;;;1.83;53.36;99173.81;4201043;34;33394;-88
2021/12/27 06:00:21;;;;;;;4.37;3.25;;;;;;;1.87;52.91;99159.38;4200992;34;33810;-88
2021/12/27 06:02:53;;;;;;;4.37;2.87;;;;;;;1.91;52.99;99164.56;4200574;34;34872;-88
2021/12/27 06:05:23;;;;;;;6.20;3.40;;;;;;;1.89;53.13;99162.84;4206587;34;33636;-88
2021/12/27 06:07:52;;;;;;;5.37;3.10;;;;;;;2.07;53.26;99157.94;4204737;34;35008;-88
2021/12/27 06:10:22;;;;;;;3.55;2.83;;;;;;;2.01;53.36;99155.31;4201109;34;33692;-88
2021/12/27 06:12:51;;;;;;;5.60;3.20;;;;;;;1.82;54.01;99150.78;4200946;34;33693;-88
2021/12/27 06:15:20;;;;;;;5.25;3.17;;;;;;;1.59;54.04;99148.75;4201075;34;33727;-88
2021/12/27 06:17:49;;;;;;;6.82;3.28;;;;;;;1.73;53.67;99156.63;4200150;34;33301;-88
2021/12/27 06:20:18;;;;;;;4.22;3.10;;;;;;;1.81;53.47;99146.50;4205963;34;33768;-88
2021/12/27 06:22:50;;;;;;;6.57;3.28;;;;;;;1.75;53.28;99144.72;4200208;34;33949;-88
2021/12/27 06:25:19;;;;;;;6.87;4.12;;;;;;;1.57;52.88;99150.47;4213974;34;34056;-88
2021/12/27 06:27:50;;;;;;;7.50;3.53;;;;;;;1.74;52.90;99140.47;4202640;34;33736;-88
2021/12/27 06:30:20;;;;;;;6.03;3.80;;;;;;;1.88;53.45;99145.75;4203783;34;33142;-88
2021/12/27 06:32:49;;;;;;;8.32;3.62;;;;;;;1.63;54.08;99150.53;4203928;34;33821;-86
2021/12/27 06:35:18;;;;;;;6.03;3.83;;;;;;;1.91;53.74;99156.03;4208232;34;34099;-88
2021/12/27 06:37:48;;;;;;;7.30;3.65;;;;;;;2.05;53.75;99151.06;4200365;34;34228;-88
2021/12/27 06:40:17;;;;;;;8.30;3.60;;;;;;;2.23;52.16;99145.34;4200736;34;33953;-88
2021/12/27 06:42:47;;;;;;;6.47;3.28;;;;;;;2.02;53.21;99149.34;4199862;34;33843;-88
2021/12/27 06:45:17;;;;;;;5.62;3.97;;;;;;;2.11;52.98;99138.38;4205990;34;33706;-89
2021/12/27 06:47:46;;;;;;;5.47;3.70;;;;;;;2.27;52.69;99144.50;4201154;34;34026;-89
2021/12/27 06:50:15;;;;;;;5.20;3.40;;;;;;;2.35;51.88;99137.78;4200559;34;33287;-87
2021/12/27 06:52:44;;;;;;;5.95;3.72;;;;;;;2.31;51.99;99138.59;4200575;34;34008;-88
2021/12/27 06:55:13;;;;;;;6.05;3.50;;;;;;;2.27;52.21;99136.81;4199786;34;33756;-87
2021/12/27 06:57:42;;;;;;;11.95;4.87;;;;;;;2.30;52.31;99142.00;4205318;34;33951;-87
2021/12/27 07:00:14;;;;;;;5.05;3.03;;;;;;;2.37;51.61;99143.78;4201125;34;33601;-88
2021/12/27 07:02:45;;;;;;;6.05;3.85;;;;;;;2.30;51.79;99142.84;4200531;34;33960;-89
2021/12/27 07:05:14;;;;;;;8.45;4.10;;;;;;;2.43;51.35;99148.97;4200800;34;33811;-88
2021/12/27 07:07:43;;;;;;;7.53;4.18;;;;;;;2.50;51.29;99142.22;4200452;34;34095;-88
2021/12/27 07:10:13;;;;;;;5.75;3.25;;;;;;;2.37;51.80;99143.78;4201256;34;33862;-88
2021/12/27 07:12:42;;;;;;;8.17;3.93;;;;;;;2.41;51.16;99139.56;4189246;34;33610;-88
2021/12/27 07:15:11;;;;;;;7.65;4.10;;;;;;;2.53;50.34;99142.22;4198510;34;33744;-89
2021/12/27 07:17:40;;;;;;;10.63;4.57;;;;;;;2.42;50.71;99146.41;4200590;34;33917;-88
2021/12/27 07:20:12;;;;;;;5.55;3.53;;;;;;;2.62;50.43;99144.91;4200881;34;34531;-88
2021/12/27 07:22:41;;;;;;;5.90;3.90;;;;;;;2.39;51.40;99136.97;4200127;34;34584;-88
2021/12/27 07:25:10;;;;;;;5.68;3.15;;;;;;;2.39;52.09;99146.34;4204522;34;33707;-87
2021/12/27 07:27:39;;;;;;;6.45;3.70;;;;;;;2.46;52.15;99138.75;4199927;34;33467;-88
2021/12/27 07:30:10;;;;;;;8.00;3.45;;;;;;;2.64;52.33;99145.78;4200469;34;34591;-88
2021/12/27 07:32:39;;;;;;;8.13;3.42;;;;;;;2.63;52.82;99150.88;4199953;34;33519;-88
2021/12/27 07:35:11;;;;;;;8.60;3.25;;;;;;;2.74;51.93;99157.81;4200281;34;34381;-88
2021/12/27 07:37:39;;;;;;;8.68;4.10;;;;;;;2.84;50.98;99158.75;4205162;34;33953;-88
2021/12/27 07:40:09;;;;;;;5.97;3.65;;;;;;;2.63;52.24;99151.72;4199951;34;33812;-88
2021/12/27 07:42:38;;;;;;;5.15;3.37;;;;;;;2.47;51.89;99158.41;4199759;34;35348;-87
2021/12/27 07:45:08;;;;;;;4.65;3.55;;;;;;;2.76;49.84;99152.72;4200234;34;33728;-88
2021/12/27 07:47:37;;;;;;;5.25;3.85;;;;;;;2.46;50.47;99151.53;4199490;34;33005;-88
2021/12/27 07:50:07;;;;;;;6.70;3.95;;;;;;;2.52;50.35;99156.75;4203454;34;33835;-87
2021/12/27 07:52:37;;;;;;;7.43;4.00;;;;;;;2.41;50.32;99150.62;4204491;34;34405;-88
2021/12/27 07:55:07;;;;;;;6.12;3.80;;;;;;;2.31;51.10;99149.69;4199843;34;33484;-88
2021/12/27 07:57:36;;;;;;;5.75;3.08;;;;;;;2.46;50.89;99145.56;4199460;34;32966;-88
2021/12/27 08:00:06;;;;;;;5.15;3.80;;;;;;;2.44;51.19;99142.13;4199258;34;33823;-88
2021/12/27 08:02:37;;;;;;;7.68;4.00;;;;;;;2.61;50.93;99134.63;4199359;34;33481;-89
2021/12/27 08:05:07;;;;;;;9.50;3.50;;;;;;;2.80;49.72;99143.34;4202918;34;33788;-88
2021/12/27 08:07:37;;;;;;;6.12;3.85;;;;;;;2.57;50.43;99138.88;4209984;34;33963;-88
2021/12/27 08:10:08;;;;;;;6.07;3.75;;;;;;;2.82;50.17;99142.50;4216033;34;33717;-89
2021/12/27 08:12:37;;;;;;;8.75;4.15;;;;;;;2.88;50.09;99147.72;4214911;34;34699;-88
2021/12/27 08:15:07;;;;;;;16.20;6.43;;;;;;;2.85;50.79;99141.69;4220377;33;32155;-87
2021/12/27 08:17:36;;;;;;;8.27;4.57;;;;;;;2.72;50.54;99135.59;4206388;34;35322;-88
2021/12/27 08:20:07;;;;;;;7.03;3.80;;;;;;;2.92;49.65;99135.78;4201885;34;34716;-88
2021/12/27 08:22:37;;;;;;;5.18;3.62;;;;;;;2.56;49.04;99130.34;4202103;34;33291;-88
2021/12/27 08:25:07;;;;;;;6.10;3.77;;;;;;;2.80;49.20;99136.50;4205344;34;34123;-89
2021/12/27 08:27:37;;;;;;;6.18;3.50;;;;;;;2.91;48.08;99137.47;4201531;34;33936;-88
2021/12/27 08:30:08;;;;;;;5.10;3.45;;;;;;;3.07;47.06;99135.03;4206979;34;33537;-88
2021/12/27 08:32:39;;;;;;;8.18;3.42;;;;;;;2.90;47.39;99134.91;4196645;34;34114;-89
2021/12/27 08:35:09;;;;;;;5.60;2.85;;;;;;;2.55;47.22;99133.72;4201988;34;33677;-88
2021/12/27 08:37:40;;;;;;;6.40;3.42;;;;;;;2.60;48.93;99136.34;4207367;34;33341;-88
2021/12/27 08:40:10;;;;;;;5.75;3.05;;;;;;;2.85;48.06;99140.00;4213802;34;34541;-89
2021/12/27 08:42:39;;;;;;;4.20;3.28;;;;;;;3.13;47.72;99141.06;4204249;34;33258;-89
2021/12/27 08:45:09;;;;;;;5.90;4.37;;;;;;;2.96;48.28;99143.50;4218906;33;34600;-89
2021/12/27 08:47:39;;;;;;;5.20;4.18;;;;;;;2.99;47.86;99152.91;4200904;34;34047;-88
2021/12/27 08:50:08;;;;;;;9.02;3.83;;;;;;;3.19;47.72;99153.94;4201368;34;33843;-89
2021/12/27 08:52:39;;;;;;;7.60;3.67;;;;;;;3.00;48.42;99157.22;4201666;34;34030;-88
2021/12/27 08:55:09;;;;;;;7.47;3.37;;;;;;;3.33;47.18;99155.75;4202756;34;34053;-88
2021/12/27 08:57:38;;;;;;;4.80;3.22;;;;;;;3.19;47.10;99158.22;4206203;34;33470;-89
2021/12/27 09:00:12;;;;;;;6.82;3.58;;;;;;;2.60;46.49;99150.84;4201261;34;32608;-88
2021/12/27 09:02:41;;;;;;;7.05;3.37;;;;;;;2.84;47.26;99158.75;4201694;34;34046;-89
2021/12/27 09:05:10;;;;;;;3.83;2.60;;;;;;;2.75;46.60;99151.88;4200349;34;33949;-87
2021/12/27 09:07:40;;;;;;;8.18;3.58;;;;;;;2.32;47.54;99151.41;4202063;34;33590;-89
2021/12/27 09:10:10;;;;;;;5.55;3.20;;;;;;;2.71;46.67;99149.25;4206378;34;32936;-88
2021/12/27 09:12:42;;;;;;;5.85;3.67;;;;;;;2.74;45.98;99152.69;4206542;34;33992;-89
2021/12/27 09:15:14;;;;;;;3.87;3.00;;;;;;;2.80;46.67;99151.03;4201660;34;33547;-89
2021/12/27 09:17:43;;;;;;;5.72;3.42;;;;;;;2.80;46.66;99153.59;4200009;34;33831;-89
2021/12/27 09:20:12;;;;;;;4.93;2.97;;;;;;;2.42;46.17;99151.53;4201099;34;34765;-88
2021/12/27 09:22:42;;;;;;;10.18;5.00;;;;;;;2.36;46.24;99144.62;4201148;34;33967;-89
2021/12/27 09:25:11;;;;;;;3.90;3.25;;;;;;;2.70;45.12;99150.09;4218281;34;33879;-89
2021/12/27 09:27:40;;;;;;;3.95;3.17;;;;;;;3.35;44.89;99149.78;4213818;34;34014;-90
2021/12/27 09:30:10;;;;;;;5.12;3.12;;;;;;;3.02;44.47;99149.50;4201098;34;33719;-90
2021/12/27 09:32:39;;;;;;;3.20;2.15;;;;;;;3.20;44.03;99134.28;4201551;34;34562;-90
2021/12/27 09:35:13;;;;;;;6.80;2.97;;;;;;;3.06;43.43;99129.06;4200184;34;33789;-91
2021/12/27 09:37:43;;;;;;;5.37;3.03;;;;;;;3.33;43.24;99132.66;4207771;34;33100;-91
2021/12/27 09:40:13;;;;;;;4.28;2.80;;;;;;;3.41;42.13;99131.87;4203610;34;33663;-90
2021/12/27 09:42:42;;;;;;;4.43;3.20;;;;;;;3.45;42.48;99122.50;4201038;34;33980;-90
2021/12/27 09:45:11;;;;;;;6.15;3.33;;;;;;;3.05;42.13;99123.94;4201577;34;34663;-90
2021/12/27 09:47:42;;;;;;;6.62;3.08;;;;;;;2.51;43.11;99123.44;4203971;34;33417;-90
2021/12/27 09:50:22;;;;;;;5.62;3.10;;;;;;;2.52;43.06;99118.34;4205957;34;34013;-90
2021/12/27 09:52:55;;;;;;;7.00;2.92;;;;;;;3.07;42.58;99110.28;4203469;34;34356;-88
2021/12/27 09:55:24;;;;;;;5.53;2.78;;;;;;;2.43;42.97;99110.56;4201284;34;34148;-90
2021/12/27 09:57:53;;;;;;;3.83;2.60;;;;;;;2.47;43.42;99112.31;4201274;34;33593;-90
2021/12/27 10:00:24;;;;;;;3.37;2.83;;;;;;;2.98;42.73;99113.62;4202124;34;34293;-90
2021/12/27 10:03:01;;;;;;;3.62;3.00;;;;;;;2.68;41.92;99106.56;4205405;34;35038;-90
2021/12/27 10:05:32;;;;;;;4.65;2.90;;;;;;;3.24;42.22;99114.66;4204839;34;34539;-90
2021/12/27 10:08:05;;;;;;;7.97;3.70;;;;;;;3.22;41.29;99106.12;4202188;34;33969;-90
2021/12/27 10:10:34;;;;;;;6.87;3.42;;;;;;;3.46;41.54;99105.44;4200605;34;33463;-91
2021/12/27 10:13:07;;;;;;;8.55;3.30;;;;;;;3.47;40.35;99107.13;4201009;34;33904;-90
2021/12/27 10:15:39;;;;;;;4.28;2.70;;;;;;;2.96;41.72;99112.75;4200151;34;33949;-90
2021/12/27 10:18:10;;;;;;;6.15;3.87;;;;;;;3.69;41.32;99106.38;4204824;34;34150;-89
2021/12/27 10:20:39;;;;;;;5.22;3.10;;;;;;;3.94;40.76;99098.78;4199868;34;34023;-91
2021/12/27 10:23:10;;;;;;;7.75;4.72;;;;;;;3.76;39.99;99095.31;4201444;34;34688;-89
2021/12/27 10:25:39;;;;;;;3.97;2.78;;;;;;;4.14;38.47;99093.75;4200303;34;33544;-90
2021/12/27 10:28:08;;;;;;;3.45;2.40;;;;;;;3.65;39.24;99099.56;4201619;34;34115;-90
2021/12/27 10:30:41;;;;;;;4.90;2.55;;;;;;;3.56;39.13;99097.78;4201322;34;34298;-89
2021/12/27 10:33:13;;;;;;;6.10;2.75;;;;;;;3.56;39.11;99102.06;4205216;34;34023;-90
2021/12/27 10:35:43;;;;;;;5.15;2.78;;;;;;;4.23;36.00;99102.34;4200399;34;33582;-91
2021/12/27 10:38:16;;;;;;;4.30;2.80;;;;;;;4.22;37.31;99100.59;4196049;34;33855;-90
2021/12/27 10:40:52;;;;;;;5.62;2.55;;;;;;;4.10;37.87;99100.56;4202904;34;34304;-90
2021/12/27 10:43:34;;;;;;;8.82;5.37;;;;;;;4.13;38.61;99094.59;4200352;34;34643;-91
2021/12/27 10:46:03;;;;;;;5.50;3.85;;;;;;;4.00;37.92;99099.69;4187238;34;33987;-89
2021/12/27 10:48:33;;;;;;;3.42;2.50;;;;;;;3.92;38.17;99098.81;4191374;34;33365;-90
2021/12/27 10:51:02;;;;;;;2.53;1.95;;;;;;;3.87;38.52;99090.25;4201164;34;34539;-90
2021/12/27 10:53:44;;;;;;;5.62;3.35;;;;;;;4.14;37.79;99101.47;4200763;34;34013;-89
2021/12/27 10:56:14;;;;;;;6.03;3.20;;;;;;;4.19;38.33;99097.19;4194491;34;176714;-91
2021/12/27 10:58:50;;;;;;;4.22;2.60;;;;;;;4.21;37.85;99098.91;4193003;34;33313;-90
2021/12/27 11:01:19;;;;;;;6.07;2.53;;;;;;;4.32;38.54;99098.94;4201347;34;34483;-89
2021/12/27 11:03:52;;;;;;;6.37;3.17;;;;;;;4.33;37.59;99085.25;4203076;34;34977;-90
2021/12/27 11:06:23;;;;;;;4.32;3.37;;;;;;;4.22;37.00;99082.62;4198249;34;32412;-89
2021/12/27 11:08:53;;;;;;;5.23;3.23;;;;;;;4.47;36.90;99080.16;4202332;34;32765;-89
2021/12/27 11:11:24;;;;;;;4.28;2.70;;;;;;;3.99;37.90;99081.75;4199873;34;34641;-92
2021/12/27 11:13:58;;;;;;;5.25;3.30;;;;;;;4.50;37.50;99080.16;4201786;34;33814;-89
2021/12/27 11:16:28;;;;;;;4.03;2.37;;;;;;;4.73;35.03;99072.44;4204172;34;33436;-91
2021/12/27 11:18:57;;;;;;;3.40;2.80;;;;;;;5.00;33.64;99073.28;4196808;34;32659;-89
2021/12/27 11:21:33;;;;;;;4.78;3.28;;;;;;;4.81;35.05;99080.16;4200166;34;33827;-90
2021/12/27 11:24:04;;;;;;;3.65;2.80;;;;;;;5.06;33.36;99081.00;4202940;34;33873;-89
2021/12/27 11:26:33;;;;;;;;;;;;;;;5.00;33.91;99078.44;4199329;34;34010;-91
2021/12/27 11:29:10;;;;;;;4.12;2.97;;;;;;;4.87;34.21;99067.31;4202041;34;33153;-88
2021/12/27 11:31:40;;;;;;;4.85;2.95;;;;;;;4.52;35.43;99065.59;4198049;34;34484;-88
2021/12/27 11:34:12;;;;;;;4.30;2.95;;;;;;;4.68;35.76;99058.75;4199826;34;34102;-89
2021/12/27 11:36:44;;;;;;;6.18;3.47;;;;;;;4.83;34.60;99060.44;4200033;34;34027;-89
2021/12/27 11:39:24;;;;;;;5.40;2.78;;;;;;;4.69;35.37;99063.03;4209376;34;31607;-89
2021/12/27 11:42:03;;;;;;;5.30;3.10;;;;;;;4.38;34.94;99064.72;4208726;34;33078;-91
2021/12/27 11:44:43;;;;;;;4.60;2.78;;;;;;;4.34;35.36;99063.00;4206063;34;33955;-92
2021/12/27 11:47:23;;;;;;;7.53;3.22;;;;;;;4.90;34.71;99057.03;4216599;34;33462;-90
2021/12/27 11:49:59;;;;;;;5.22;3.28;;;;;;;4.69;34.84;99057.91;4200825;34;33312;-90
2021/12/27 11:52:29;;;;;;;4.22;2.55;;;;;;;4.87;33.93;99047.59;4201262;34;33736;-91
2021/12/27 11:55:02;;;;;;;3.08;2.22;;;;;;;4.84;34.46;99044.19;4200329;34;35640;-91
2021/12/27 11:57:55;;;;;;;5.03;3.30;;;;;;;4.92;34.31;99047.59;4202420;34;34450;-91